地図

経路データ

SID SEASON NUMBER BASIN SUBBASIN NAME ISO_TIME NATURE LAT LON WMO_WIND WMO_PRES WMO_AGENCY TRACK_TYPE DIST2LAND LANDFALL IFLAG USA_AGENCY USA_ATCF_ID USA_LAT USA_LON USA_RECORD USA_STATUS USA_WIND USA_PRES USA_SSHS USA_R34_NE USA_R34_SE USA_R34_SW USA_R34_NW USA_R50_NE USA_R50_SE USA_R50_SW USA_R50_NW USA_R64_NE USA_R64_SE USA_R64_SW USA_R64_NW USA_POCI USA_ROCI USA_RMW USA_EYE TOKYO_LAT TOKYO_LON TOKYO_GRADE TOKYO_WIND TOKYO_PRES TOKYO_R50_DIR TOKYO_R50_LONG TOKYO_R50_SHORT TOKYO_R30_DIR TOKYO_R30_LONG TOKYO_R30_SHORT TOKYO_LAND CMA_LAT CMA_LON CMA_CAT CMA_WIND CMA_PRES HKO_LAT HKO_LON HKO_CAT HKO_WIND HKO_PRES NEWDELHI_LAT NEWDELHI_LON NEWDELHI_GRADE NEWDELHI_WIND NEWDELHI_PRES NEWDELHI_CI NEWDELHI_DP NEWDELHI_POCI REUNION_LAT REUNION_LON REUNION_TYPE REUNION_WIND REUNION_PRES REUNION_TNUM REUNION_CI REUNION_RMW REUNION_R34_NE REUNION_R34_SE REUNION_R34_SW REUNION_R34_NW REUNION_R50_NE REUNION_R50_SE REUNION_R50_SW REUNION_R50_NW REUNION_R64_NE REUNION_R64_SE REUNION_R64_SW REUNION_R64_NW BOM_LAT BOM_LON BOM_TYPE BOM_WIND BOM_PRES BOM_TNUM BOM_CI BOM_RMW BOM_R34_NE BOM_R34_SE BOM_R34_SW BOM_R34_NW BOM_R50_NE BOM_R50_SE BOM_R50_SW BOM_R50_NW BOM_R64_NE BOM_R64_SE BOM_R64_SW BOM_R64_NW BOM_ROCI BOM_POCI BOM_EYE BOM_POS_METHOD BOM_PRES_METHOD NADI_LAT NADI_LON NADI_CAT NADI_WIND NADI_PRES WELLINGTON_LAT WELLINGTON_LON WELLINGTON_WIND WELLINGTON_PRES DS824_LAT DS824_LON DS824_STAGE DS824_WIND DS824_PRES TD9636_LAT TD9636_LON TD9636_STAGE TD9636_WIND TD9636_PRES TD9635_LAT TD9635_LON TD9635_WIND TD9635_PRES TD9635_ROCI NEUMANN_LAT NEUMANN_LON NEUMANN_CLASS NEUMANN_WIND NEUMANN_PRES MLC_LAT MLC_LON MLC_CLASS MLC_WIND MLC_PRES USA_GUST BOM_GUST BOM_GUST_PER REUNION_GUST REUNION_GUST_PER USA_SEAHGT USA_SEARAD_NE USA_SEARAD_SE USA_SEARAD_SW USA_SEARAD_NW STORM_SPEED STORM_DIR
1919272N08144 1919 39 WP MM NOT_NAMED 1919-09-28 22:00:00 NR 8.30000 144.400 main 1190 1190 __________O___ -1 8.30000 144.400 2 5 326
1919272N08144 1919 39 WP MM NOT_NAMED 1919-09-29 00:00:00 NR 8.45113 144.306 main 1214 1214 __________P___ -1 8.45113 144.306 2 5 329
1919272N08144 1919 39 WP MM NOT_NAMED 1919-09-29 03:00:00 NR 8.67738 144.169 main 1239 1239 __________P___ -1 8.67738 144.169 2 5 330
1919272N08144 1919 39 WP MM NOT_NAMED 1919-09-29 06:00:00 NR 8.90254 144.042 main 1265 1265 __________P___ -1 8.90254 144.042 2 5 332
1919272N08144 1919 39 WP MM NOT_NAMED 1919-09-29 09:00:00 NR 9.12600 143.932 main 1290 1290 __________P___ -1 9.12600 143.932 2 5 334
1919272N08144 1919 39 WP MM NOT_NAMED 1919-09-29 10:00:00 NR 9.20000 143.900 main 1301 1301 __________O___ -1 9.20000 143.900 2 5 339
1919272N08144 1919 39 WP MM NOT_NAMED 1919-09-29 12:00:00 NR 9.34779 143.843 main 1314 1325 __________P___ -1 9.34779 143.843 2 5 341
1919272N08144 1919 39 WP MM NOT_NAMED 1919-09-29 15:00:00 NR 9.57550 143.765 main 1347 1347 __________P___ -1 9.57550 143.765 2 5 341
1919272N08144 1919 39 WP MM NOT_NAMED 1919-09-29 18:00:00 NR 9.82160 143.675 main 1371 1371 __________P___ -1 9.82160 143.675 2 6 338
1919272N08144 1919 39 WP MM NOT_NAMED 1919-09-29 21:00:00 NR 10.0986 143.552 main 1406 1409 __________P___ -1 10.0986 143.552 2 6 336
1919272N08144 1919 39 WP MM NOT_NAMED 1919-09-29 22:00:00 NR 10.2000 143.500 main 1420 1420 __________O___ -1 10.2000 143.500 2 7 331
1919272N08144 1919 39 WP MM NOT_NAMED 1919-09-30 00:00:00 NR 10.4241 143.373 main 1444 1444 __________P___ -1 10.4241 143.373 2 8 329
1919272N08144 1919 39 WP MM NOT_NAMED 1919-09-30 03:00:00 NR 10.7918 143.144 main 1491 1491 __________P___ -1 10.7918 143.144 2 9 327
1919272N08144 1919 39 WP MM NOT_NAMED 1919-09-30 06:00:00 NR 11.1808 142.882 main 1525 1521 __________P___ -1 11.1808 142.882 2 10 325
1919272N08144 1919 39 WP MM NOT_NAMED 1919-09-30 09:00:00 NR 11.5722 142.597 main 1557 1553 __________P___ -1 11.5722 142.597 2 10 324
1919272N08144 1919 39 WP MM NOT_NAMED 1919-09-30 10:00:00 NR 11.7000 142.500 main 1564 1564 __________O___ -1 11.7000 142.500 2 9 323
1919272N08144 1919 39 WP MM NOT_NAMED 1919-09-30 12:00:00 NR 11.9416 142.311 main 1579 1586 __________P___ -1 11.9416 142.311 2 9 322
1919272N08144 1919 39 WP MM NOT_NAMED 1919-09-30 15:00:00 NR 12.2979 142.016 main 1613 1613 __________P___ -1 12.2979 142.016 2 9 320
1919272N08144 1919 39 WP MM NOT_NAMED 1919-09-30 18:00:00 NR 12.6466 141.711 main 1632 1638 __________P___ -1 12.6466 141.711 2 9 319
1919272N08144 1919 39 WP MM NOT_NAMED 1919-09-30 21:00:00 NR 12.9879 141.402 main 1661 1661 __________P___ -1 12.9879 141.402 2 9 319
1919272N08144 1919 39 WP MM NOT_NAMED 1919-09-30 22:00:00 NR 13.1000 141.300 main 1667 1667 __________O___ -1 13.1000 141.300 2 9 319
1919272N08144 1919 39 WP MM NOT_NAMED 1919-10-01 00:00:00 NR 13.3196 141.102 main 1680 1656 __________P___ -1 13.3196 141.102 2 9 318
1919272N08144 1919 39 WP MM NOT_NAMED 1919-10-01 03:00:00 NR 13.6428 140.806 main 1656 1629 __________P___ -1 13.6428 140.806 2 9 318
1919272N08144 1919 39 WP MM NOT_NAMED 1919-10-01 06:00:00 NR 13.9640 140.507 main 1631 1605 __________P___ -1 13.9640 140.507 2 9 318
1919272N08144 1919 39 WP MM NOT_NAMED 1919-10-01 09:00:00 NR 14.2895 140.203 main 1605 1597 __________P___ -1 14.2895 140.203 2 9 318
1919272N08144 1919 39 WP MM NOT_NAMED 1919-10-01 10:00:00 NR 14.4000 140.100 main 1597 1581 __________O___ -1 14.4000 140.100 2 9 318
1919272N08144 1919 39 WP MM NOT_NAMED 1919-10-01 12:00:00 NR 14.6223 139.894 main 1581 1554 __________P___ -1 14.6223 139.894 2 9 318
1919272N08144 1919 39 WP MM NOT_NAMED 1919-10-01 15:00:00 NR 14.9619 139.579 main 1556 1528 __________P___ -1 14.9619 139.579 2 9 318
1919272N08144 1919 39 WP MM NOT_NAMED 1919-10-01 18:00:00 NR 15.3119 139.254 main 1530 1498 __________P___ -1 15.3119 139.254 2 10 318
1919272N08144 1919 39 WP MM NOT_NAMED 1919-10-01 21:00:00 NR 15.6753 138.916 main 1498 1490 __________P___ -1 15.6753 138.916 2 10 318
1919272N08144 1919 39 WP MM NOT_NAMED 1919-10-01 22:00:00 NR 15.8000 138.800 main 1490 1475 __________O___ -1 15.8000 138.800 2 10 319
1919272N08144 1919 39 WP MM NOT_NAMED 1919-10-02 00:00:00 NR 16.0551 138.569 main 1478 1447 __________P___ -1 16.0551 138.569 2 10 319
1919272N08144 1919 39 WP MM NOT_NAMED 1919-10-02 03:00:00 NR 16.4504 138.210 main 1450 1424 __________P___ -1 16.4504 138.210 2 11 319
1919272N08144 1919 39 WP MM NOT_NAMED 1919-10-02 06:00:00 NR 16.8555 137.834 main 1424 1401 __________P___ -1 16.8555 137.834 2 11 318
1919272N08144 1919 39 WP MM NOT_NAMED 1919-10-02 09:00:00 NR 17.2641 137.437 main 1401 1395 __________P___ -1 17.2641 137.437 2 11 317
1919272N08144 1919 39 WP MM NOT_NAMED 1919-10-02 10:00:00 NR 17.4000 137.300 main 1395 1380 __________O___ -1 17.4000 137.300 2 12 315
1919272N08144 1919 39 WP MM NOT_NAMED 1919-10-02 12:00:00 NR 17.6746 137.007 main 1380 1352 __________P___ -1 17.6746 137.007 2 12 314
1919272N08144 1919 39 WP MM NOT_NAMED 1919-10-02 15:00:00 NR 18.0867 136.548 main 1352 1331 __________P___ -1 18.0867 136.548 2 12 313
1919272N08144 1919 39 WP MM NOT_NAMED 1919-10-02 18:00:00 NR 18.4906 136.085 main 1337 1316 __________P___ -1 18.4906 136.085 2 12 313
1919272N08144 1919 39 WP MM NOT_NAMED 1919-10-02 21:00:00 NR 18.8768 135.640 main 1316 1313 __________P___ -1 18.8768 135.640 2 11 313
1919272N08144 1919 39 WP MM NOT_NAMED 1919-10-02 22:00:00 NR 19.0000 135.500 main 1313 1294 __________O___ -1 19.0000 135.500 2 10 313
1919272N08144 1919 39 WP MM NOT_NAMED 1919-10-03 00:00:00 NR 19.2309 135.235 main 1294 1281 __________P___ -1 19.2309 135.235 2 10 313
1919272N08144 1919 39 WP MM NOT_NAMED 1919-10-03 03:00:00 NR 19.5585 134.864 main 1286 1266 __________P___ -1 19.5585 134.864 2 9 314
1919272N08144 1919 39 WP MM NOT_NAMED 1919-10-03 06:00:00 NR 19.8747 134.520 main 1266 1256 __________P___ -1 19.8747 134.520 2 9 315
1919272N08144 1919 39 WP MM NOT_NAMED 1919-10-03 09:00:00 NR 20.1919 134.201 main 1256 1242 __________P___ -1 20.1919 134.201 2 9 317
1919272N08144 1919 39 WP MM NOT_NAMED 1919-10-03 10:00:00 NR 20.3000 134.100 main 1242 1215 __________O___ -1 20.3000 134.100 2 9 320
1919272N08144 1919 39 WP MM NOT_NAMED 1919-10-03 12:00:00 NR 20.5194 133.909 main 1215 1164 __________P___ -1 20.5194 133.909 2 8 322
1919272N08144 1919 39 WP MM NOT_NAMED 1919-10-03 15:00:00 NR 20.8548 133.643 main 1164 1087 __________P___ -1 20.8548 133.643 2 12 319
1919272N08144 1919 39 WP MM NOT_NAMED 1919-10-03 18:00:00 NR 21.4505 133.056 main 1087 1022 __________P___ -1 21.2036 133.381 2 15 320
1919272N08144 1919 39 WP MM NOT_NAMED 1919-10-03 21:00:00 NR 21.9812 132.634 main 1022 998 __________P___ -1 21.5718 133.101 2 14 322
1919272N08144 1919 39 WP MM NOT_NAMED 1919-10-03 22:00:00 NR 22.1985 132.424 main 997 960 __________O___ -1 21.7000 133.000 2 13 318
1919272N08144 1919 39 WP MM NOT_NAMED 1919-10-04 00:00:00 NR 22.4679 132.163 main 960 923 __________P___ -1 21.9690 132.763 2 9 321
1919272N08144 1919 39 WP MM NOT_NAMED 1919-10-04 03:00:00 NR 22.7641 131.919 main 923 888 __________P___ -1 22.3915 132.381 2 7 329
1919272N08144 1919 39 WP MM NOT_NAMED 1919-10-04 06:00:00 NR 23.0880 131.757 main 888 842 __________P___ -1 22.8253 131.991 2 8 339
1919272N08144 1919 39 WP MM NOT_NAMED 1919-10-04 09:00:00 NR 23.5054 131.611 main 842 831 __________P___ -1 23.2581 131.617 2 8 338
1919272N08144 1919 39 WP MM NOT_NAMED 1919-10-04 10:00:00 NR 23.5863 131.542 main 830 817 __________O___ -1 23.4000 131.500 2 7 298
1919272N08144 1919 39 WP MM NOT_NAMED 1919-10-04 12:00:00 NR 23.6722 131.273 main 817 771 __________P___ -1 23.6722 131.273 2 9 312
1919272N08144 1919 39 WP MM NOT_NAMED 1919-10-04 15:00:00 NR 24.0745 130.957 main 771 725 __________P___ -1 24.0745 130.957 2 10 326
1919272N08144 1919 39 WP MM NOT_NAMED 1919-10-04 18:00:00 NR 24.4720 130.682 main 725 681 __________P___ -1 24.4720 130.682 2 9 330
1919272N08144 1919 39 WP MM NOT_NAMED 1919-10-04 21:00:00 NR 24.8679 130.460 main 681 670 __________P___ -1 24.8679 130.460 2 9 334
1919272N08144 1919 39 WP MM NOT_NAMED 1919-10-04 22:00:00 NR 25.0000 130.400 main 670 637 __________O___ -1 25.0000 130.400 2 9 339
1919272N08144 1919 39 WP MM NOT_NAMED 1919-10-05 00:00:00 NR 25.2717 130.283 main 637 593 __________P___ -1 25.2717 130.283 2 9 342
1919272N08144 1919 39 WP MM NOT_NAMED 1919-10-05 03:00:00 NR 25.6795 130.158 main 593 550 __________P___ -1 25.6795 130.158 2 8 348
1919272N08144 1919 39 WP MM NOT_NAMED 1919-10-05 06:00:00 NR 26.0821 130.093 main 550 505 __________P___ -1 26.0821 130.093 2 8 355
1919272N08144 1919 39 WP MM NOT_NAMED 1919-10-05 09:00:00 NR 26.4733 130.088 main 505 494 __________P___ -1 26.4733 130.088 2 8 0
1919272N08144 1919 39 WP MM NOT_NAMED 1919-10-05 10:00:00 NR 26.6000 130.100 main 494 472 __________O___ -1 26.6000 130.100 2 8 5
1919272N08144 1919 39 WP MM NOT_NAMED 1919-10-05 12:00:00 NR 26.8471 130.142 main 472 426 __________P___ -1 26.8471 130.142 2 7 12
1919272N08144 1919 39 WP MM NOT_NAMED 1919-10-05 15:00:00 NR 27.2042 130.246 main 426 391 __________P___ -1 27.2042 130.246 2 7 17
1919272N08144 1919 39 WP MM NOT_NAMED 1919-10-05 18:00:00 NR 27.5495 130.385 main 391 346 __________P___ -1 27.5495 130.385 2 7 21
1919272N08144 1919 39 WP MM NOT_NAMED 1919-10-05 21:00:00 NR 27.8879 130.545 main 346 334 __________P___ -1 27.8879 130.545 2 7 23
1919272N08144 1919 39 WP MM NOT_NAMED 1919-10-05 22:00:00 NR 28.0000 130.600 main 334 __________O___ -1 28.0000 130.600 2 7 26

デジタル台風データ・検索

IBTrACS Databaseについて

本データベースは、米国NOAAが公開する1842年以降の世界の熱帯低気圧のベストトラックデータアーカイブInternational Best Track Archive for Climate Stewardship (IBTrACS)を、ウェブで閲覧しやすい形式に変換したものです。

最終更新日:2021-11-26